»·PEaware :: SWA803 KLAX-KRNO

SWA803 :: KLAX-KRNO

FLIGHT INFORMATION

Flight Status: Arrived
Operator:
Southwest Airlines
More flights by this operator :: More flights under this callsign
Pilot: Ben F. (2808)
Aircraft: BOEING 737-300
(B733)
More flights by this aircraft type
Origin: KLAX Los Angeles Intl
United States
Destination: KRNO Reno/Tahoe Intl
United States
More flights between these airports :: More routes between these airports
Route: +LADYJ4 CSTRO FMG
File this flight plan on PilotEdge
Remarks:
Altitude:
(Current/Filed)
34,000ft
Speed:
(Current/Filed)
451kts
Departed: 11-Oct-20 07:19 AM
Arrived: 11-Oct-20 08:24 AM
Distance/Time
Traveled:
340nm/1:05
Distance/Time
To Go:
Arrived

Flight Plot

Page will automatically refresh every two minutes.

Flight plan parsing failed; only flown route is shown


Map Options




Map Legend


Flown Route
Filed Route
Departure Airport
Arrival Airport
Navaid (VOR, NDB)
Fix

Horizontal Profiles

Position Reports

Time Latitude Longitude Heading Altitude Ground
Speed
11-Oct-20 06:58 33.946834 -118.401720 84 110ft 0kts
11-Oct-20 06:59 33.946834 -118.401720 84 110ft 0kts
11-Oct-20 07:00 33.946834 -118.401720 84 110ft 0kts
11-Oct-20 07:01 33.946834 -118.401720 84 110ft 0kts
11-Oct-20 07:02 33.946834 -118.401720 84 110ft 0kts
11-Oct-20 07:03 33.946834 -118.401720 84 110ft 0kts
11-Oct-20 07:04 33.946834 -118.401720 84 110ft 0kts
11-Oct-20 07:05 33.946834 -118.401720 84 110ft 0kts
11-Oct-20 07:06 33.946834 -118.401720 84 110ft 0kts
11-Oct-20 07:07 33.946834 -118.401720 84 110ft 0kts
11-Oct-20 07:08 33.946816 -118.401921 83 110ft 2kts
11-Oct-20 07:09 33.946671 -118.402533 40 110ft 1kts
11-Oct-20 07:10 33.946607 -118.402590 35 110ft 0kts
11-Oct-20 07:11 33.946713 -118.402535 18 110ft 2kts
11-Oct-20 07:12 33.947567 -118.402595 352 110ft 0kts
11-Oct-20 07:13 33.947567 -118.402595 352 110ft 0kts
11-Oct-20 07:14 33.947779 -118.402631 352 110ft 6kts
11-Oct-20 07:15 33.949139 -118.401161 84 110ft 9kts
11-Oct-20 07:16 33.949549 -118.399200 29 110ft 0kts
11-Oct-20 07:17 33.950407 -118.399535 275 110ft 9kts
11-Oct-20 07:18 33.946646 -118.435134 261 645ft 182kts
11-Oct-20 07:19 33.940168 -118.501531 268 3277ft 195kts
11-Oct-20 07:20 33.936815 -118.566659 269 5311ft 211kts
11-Oct-20 07:21 33.948363 -118.643496 326 7073ft 265kts
11-Oct-20 07:22 34.016380 -118.676348 0 8041ft 278kts
11-Oct-20 07:23 34.093238 -118.668626 8 8303ft 285kts
11-Oct-20 07:24 34.171136 -118.650109 8 11047ft 299kts
11-Oct-20 07:25 34.258481 -118.635690 348 13028ft 333kts
11-Oct-20 07:26 34.350775 -118.657129 348 15628ft 345kts
11-Oct-20 07:27 34.446788 -118.678431 348 18017ft 358kts
11-Oct-20 07:28 34.546039 -118.697756 349 20341ft 365kts
11-Oct-20 07:29 34.647166 -118.717504 349 22427ft 373kts
11-Oct-20 07:30 34.746948 -118.749021 330 24279ft 379kts
11-Oct-20 07:31 34.838744 -118.813421 331 26101ft 383kts
11-Oct-20 07:32 34.931939 -118.877515 332 27678ft 389kts
11-Oct-20 07:33 35.025562 -118.942007 332 29596ft 381kts
11-Oct-20 07:34 35.116945 -119.005056 332 31043ft 380kts
11-Oct-20 07:35 35.208385 -119.068228 332 32526ft 375kts
11-Oct-20 07:36 35.299211 -119.131257 331 33630ft 375kts
11-Oct-20 07:37 35.390297 -119.194645 331 34116ft 383kts
11-Oct-20 07:38 35.486461 -119.245293 358 34143ft 383kts
11-Oct-20 07:39 35.593287 -119.249883 353 34131ft 384kts
11-Oct-20 07:40 35.699368 -119.260019 353 34129ft 384kts
11-Oct-20 07:41 35.805808 -119.270456 353 34126ft 385kts
11-Oct-20 07:42 35.912426 -119.280944 353 34127ft 385kts
11-Oct-20 07:43 36.019422 -119.291496 352 34121ft 385kts
11-Oct-20 07:44 36.126194 -119.302049 352 34084ft 386kts
11-Oct-20 07:45 36.232763 -119.312599 352 34120ft 385kts
11-Oct-20 07:46 36.339253 -119.323322 352 34120ft 384kts
11-Oct-20 07:47 36.445419 -119.334046 352 34119ft 383kts
11-Oct-20 07:48 36.551704 -119.344686 352 34120ft 384kts
11-Oct-20 07:49 36.657717 -119.355318 352 34110ft 384kts
11-Oct-20 07:50 36.763478 -119.369465 347 34110ft 381kts
11-Oct-20 07:51 36.867880 -119.389907 348 34110ft 381kts
11-Oct-20 07:52 36.972180 -119.409797 348 34110ft 380kts
11-Oct-20 07:53 37.076623 -119.429748 347 34110ft 380kts
11-Oct-20 07:54 37.180307 -119.449449 347 34132ft 379kts
11-Oct-20 07:56 37.284649 -119.469434 347 34185ft 379kts
11-Oct-20 07:57 37.388673 -119.489464 347 34193ft 378kts
11-Oct-20 07:58 37.492959 -119.509607 346 34195ft 378kts
11-Oct-20 07:59 37.596792 -119.529732 346 33830ft 383kts
11-Oct-20 08:00 37.700293 -119.549827 347 32285ft 375kts
11-Oct-20 08:01 37.804025 -119.570047 347 30797ft 375kts
11-Oct-20 08:02 37.906325 -119.590029 347 29301ft 368kts
11-Oct-20 08:03 38.007066 -119.609759 347 27788ft 360kts
11-Oct-20 08:04 38.104358 -119.628870 347 26282ft 350kts
11-Oct-20 08:05 38.199739 -119.647590 348 24744ft 346kts
11-Oct-20 08:06 38.292856 -119.666190 347 23247ft 338kts
11-Oct-20 08:07 38.385420 -119.684610 347 21743ft 334kts
11-Oct-20 08:08 38.476993 -119.703019 347 20237ft 330kts
11-Oct-20 08:09 38.567058 -119.721054 347 18739ft 326kts
11-Oct-20 08:10 38.653960 -119.738590 347 17221ft 305kts
11-Oct-20 08:10 38.721755 -119.752189 347 16055ft 288kts
11-Oct-20 08:12 38.812759 -119.770419 348 15981ft 280kts
11-Oct-20 08:12 38.878428 -119.758082 1 15848ft 290kts
11-Oct-20 08:14 38.970440 -119.753426 349 14107ft 276kts
11-Oct-20 08:14 39.032685 -119.761316 350 12749ft 261kts
11-Oct-20 08:15 39.105435 -119.770193 353 11143ft 265kts
11-Oct-20 08:16 39.179252 -119.770306 359 9510ft 264kts
11-Oct-20 08:17 39.249751 -119.770073 0 9038ft 238kts
11-Oct-20 08:18 39.314392 -119.769764 359 8587ft 221kts
11-Oct-20 08:19 39.370808 -119.769606 0 7134ft 184kts
11-Oct-20 08:20 39.418058 -119.769427 0 6008ft 151kts
11-Oct-20 08:21 39.460053 -119.769352 1 5052ft 151kts
11-Oct-20 08:22 39.499419 -119.769254 359 4416ft 96kts
11-Oct-20 08:23 39.510950 -119.770586 270 4416ft 5kts
11-Oct-20 08:24 39.507944 -119.771476 179 4416ft 16kts
11-Oct-20 08:25 39.503776 -119.771864 255 4416ft 11kts
11-Oct-20 08:26 39.504469 -119.772781 353 4416ft 0kts
11-Oct-20 08:27 39.504469 -119.772781 353 4416ft 0kts

Navigation Log

Ident Type
Flight plan parsing failed, navigation log unavailable